Portada
METAR-TAF:

METAR-TAF

Aeroports :

Lar, Iran

latitud: 27-40-26N, longitud: 054-22-53E, altitud: 792 m

Observació

L'informe es va fer fa 10 minuts, a les 15:00 UTC
Vent 10 kt del Sud/Sud-Oest
Temperatura 40°C
Humitat 13%
Pressió 1004 hPa
Visibilitat 10 km o més
sense núvols per sota de 1500 mi sense presència de cumulonimbus.

METAR: OISL 291500Z 21010KT CAVOK 40/06 Q1004 A2965 NOSIG

Hora: 19:40 (15:10 UTC)

Pronòstic

L'informe es va fer fa 4 hores i 0 minuts, a les 11:10 UTC
Pronòstic vàlid del 29 a les 12 UTC al 30 a les 18 UTC
Vent 7 kt del Oest
Visibilitat 10 km o més
sense núvols per sota de 1500 mi sense presència de cumulonimbus.

TAF: OISL 291110Z 2912/3018 27007KT CAVOK

Observacions i pronòstics meteorològics de més de 4000 aeroports (METAR i TAF).

Les estacions disponibles són els punts grocs i vermells al mapa.

Posi el ratolí al punt desitjat per veure el nom de l'estació.

Feu clic per veure les observacions i els pronòstics meteorològics.

Per canviar el mapa: feu clic els botons verds amb una creu de color negre per apropar; al botó verd amb un guió per allunyar la imatge; o en les fletxes verdes per a mapes adjacents.


METAR-TAF: